Time;durP1;ratioP1;P1;durP2;ratioP2;P2;SDS_P1;SDS_P2;PMS_P1;PMS_P2;Temp;Humidity;BMP_temperature;BMP_pressure;BME280_temperature;BME280_humidity;BME280_pressure;Samples;Min_cycle;Max_cycle;Signal;HPM_P1;HPM_P2
2022/11/04 00:00:12;;;;;;;15.57;2.75;;;14.20;75.30;;;;;;7385520;19;20044;-82
2022/11/04 00:02:41;;;;;;;14.63;2.70;;;14.30;75.20;;;;;;7382780;19;20032;-82
2022/11/04 00:05:10;;;;;;;20.52;2.53;;;14.30;75.20;;;;;;7381910;19;20098;-81
2022/11/04 00:12:23;;;;;;;27.70;2.85;;;14.40;74.90;;;;;;7374821;19;20024;-82
2022/11/04 00:13:06;;;;;;;26.73;3.22;;;14.40;75.00;;;;;;7372923;19;20031;-81
2022/11/04 00:18:30;;;;;;;18.73;2.85;;;14.30;75.60;;;;;;7368225;19;20015;-81
2022/11/04 00:29:02;;;;;;;18.45;2.75;;;14.20;77.10;;;;;;7370009;19;20014;-79
2022/11/04 00:34:15;;;;;;;19.00;2.72;;;14.20;77.40;;;;;;7374415;19;20032;-79
2022/11/04 00:36:43;;;;;;;25.25;2.67;;;14.20;77.40;;;;;;7374611;19;20006;-79
2022/11/04 00:39:12;;;;;;;23.73;3.13;;;14.20;77.40;;;;;;7374110;19;20081;-79
2022/11/04 00:41:41;;;;;;;21.13;2.88;;;14.20;78.20;;;;;;7374706;19;20021;-79
2022/11/04 00:44:10;;;;;;;22.13;3.08;;;14.20;77.20;;;;;;7371335;19;20098;-79
2022/11/04 00:46:41;;;;;;;25.20;3.42;;;14.30;77.30;;;;;;7392507;19;20089;-79
2022/11/04 00:49:09;;;;;;;22.63;2.60;;;14.20;77.10;;;;;;7370716;19;20028;-79
2022/11/04 00:51:38;;;;;;;24.90;2.80;;;14.30;77.10;;;;;;7373769;19;20007;-79
2022/11/04 00:54:07;;;;;;;23.55;2.90;;;14.30;77.00;;;;;;7376069;19;20485;-80
2022/11/04 00:56:39;;;;;;;18.20;2.25;;;14.20;76.90;;;;;;7377975;19;20015;-79
2022/11/04 00:59:09;;;;;;;21.27;2.97;;;14.20;77.10;;;;;;7375971;19;20455;-78
2022/11/04 01:01:41;;;;;;;26.17;3.20;;;14.20;76.90;;;;;;7396085;19;20011;-79
2022/11/04 01:04:10;;;;;;;23.65;2.92;;;14.10;76.80;;;;;;7373718;19;20021;-79
2022/11/04 01:06:39;;;;;;;33.28;3.13;;;14.20;77.10;;;;;;7373956;19;20749;-79
2022/11/04 01:09:10;;;;;;;21.25;2.08;;;14.10;77.10;;;;;;7379538;19;20377;-79
2022/11/04 01:11:39;;;;;;;17.77;2.80;;;14.20;77.10;;;;;;7397926;19;20018;-80
2022/11/04 01:14:08;;;;;;;17.60;2.97;;;14.30;77.00;;;;;;7403098;19;20288;-79
2022/11/04 01:16:36;;;;;;;21.10;2.50;;;14.20;76.90;;;;;;7405036;19;20485;-80
2022/11/04 01:19:08;;;;;;;27.63;3.00;;;14.30;76.80;;;;;;7372717;19;20088;-79
2022/11/04 01:21:37;;;;;;;18.05;2.63;;;14.30;76.70;;;;;;7375236;19;20034;-79
2022/11/04 01:24:06;;;;;;;21.55;2.55;;;14.30;76.80;;;;;;7373846;19;20114;-79
2022/11/04 01:26:35;;;;;;;20.50;2.30;;;14.30;76.70;;;;;;7373104;19;20091;-80
2022/11/04 01:29:04;;;;;;;22.10;2.65;;;14.30;76.80;;;;;;7370638;19;20019;-79
2022/11/04 01:31:33;;;;;;;24.35;2.70;;;14.20;76.70;;;;;;7395722;19;20031;-79
2022/11/04 01:34:02;;;;;;;19.15;2.28;;;14.10;76.90;;;;;;7373219;19;20029;-80
2022/11/04 01:36:33;;;;;;;19.27;2.38;;;14.10;77.30;;;;;;7374363;19;20125;-79
2022/11/04 01:39:02;;;;;;;27.98;2.50;;;14.20;77.20;;;;;;7376553;19;20079;-79
2022/11/04 01:41:33;;;;;;;20.52;2.58;;;14.20;76.90;;;;;;7372401;19;20035;-79
2022/11/04 01:44:04;;;;;;;10.43;1.90;;;14.30;76.90;;;;;;7378595;19;20011;-78
2022/11/04 01:46:38;;;;;;;14.35;2.20;;;14.40;76.70;;;;;;7399189;19;20077;-79
2022/11/04 01:49:20;;;;;;;15.20;2.10;;;14.20;76.30;;;;;;7375226;19;20035;-80
2022/11/04 01:51:53;;;;;;;18.20;2.15;;;14.20;76.50;;;;;;7375869;19;20043;-79
2022/11/04 01:54:23;;;;;;;13.82;2.35;;;14.10;76.40;;;;;;7373310;19;20324;-79
2022/11/04 01:56:52;;;;;;;19.27;2.00;;;14.20;76.50;;;;;;7378583;19;20027;-79
2022/11/04 01:59:25;;;;;;;15.18;1.90;;;14.10;76.40;;;;;;7380679;19;20411;-79
2022/11/04 02:01:54;;;;;;;12.90;1.98;;;14.00;76.70;;;;;;7403952;19;20078;-79
2022/11/04 02:04:29;;;;;;;15.75;1.92;;;14.10;76.70;;;;;;7382157;19;20046;-80
2022/11/04 02:07:04;;;;;;;16.13;1.83;;;14.10;76.60;;;;;;7384888;19;20014;-80
2022/11/04 02:09:35;;;;;;;13.20;2.17;;;14.10;76.60;;;;;;7390814;19;20112;-80
2022/11/04 02:14:46;;;;;;;11.38;2.03;;;14.20;76.20;;;;;;7389586;19;20040;-79
2022/11/04 02:17:34;;;;;;;18.55;2.42;;;14.30;76.10;;;;;;7388061;19;20051;-79
2022/11/04 02:20:38;;;;;;;15.23;2.22;;;14.20;76.10;;;;;;7382924;19;20018;-79
2022/11/04 02:23:48;;;;;;;15.25;1.98;;;14.10;76.40;;;;;;7382284;19;20014;-79
2022/11/04 02:26:49;;;;;;;12.95;2.15;;;14.10;76.10;;;;;;7384615;19;20082;-80
2022/11/04 02:29:32;;;;;;;14.80;2.90;;;14.00;76.70;;;;;;7377354;19;20099;-80
2022/11/04 02:32:11;;;;;;;12.27;1.92;;;14.10;76.70;;;;;;7388338;19;20821;-80
2022/11/04 02:34:49;;;;;;;18.25;2.58;;;14.20;76.70;;;;;;7405309;19;20018;-80
2022/11/04 02:37:29;;;;;;;12.05;1.90;;;14.30;76.50;;;;;;7376148;19;20019;-80
2022/11/04 02:40:09;;;;;;;14.15;2.88;;;14.30;76.40;;;;;;7376504;19;20014;-80
2022/11/04 02:42:46;;;;;;;15.02;2.10;;;14.40;76.30;;;;;;7375061;19;20021;-80
2022/11/04 02:45:23;;;;;;;13.35;2.30;;;14.40;76.10;;;;;;7375073;19;20086;-81
2022/11/04 02:47:58;;;;;;;17.33;2.47;;;14.30;76.20;;;;;;7377363;19;20015;-81
2022/11/04 02:50:33;;;;;;;16.10;2.20;;;13.90;77.00;;;;;;7374396;19;20010;-80
2022/11/04 02:53:06;;;;;;;10.27;2.10;;;14.10;77.10;;;;;;7381802;19;20030;-79
2022/11/04 02:55:40;;;;;;;20.08;2.35;;;14.20;76.80;;;;;;7395949;19;20410;-81
2022/11/04 02:58:14;;;;;;;11.30;2.25;;;14.30;76.80;;;;;;7375548;19;20010;-80
2022/11/04 03:00:48;;;;;;;15.35;1.90;;;14.30;76.40;;;;;;7375286;19;20304;-80
2022/11/04 03:03:21;;;;;;;18.73;2.40;;;14.30;76.10;;;;;;7374650;19;20015;-80
2022/11/04 03:05:52;;;;;;;14.75;2.03;;;14.40;76.20;;;;;;7375622;19;20021;-81
2022/11/04 03:08:26;;;;;;;12.43;1.98;;;14.30;76.30;;;;;;7373659;19;20019;-80
2022/11/04 03:11:00;;;;;;;14.75;2.58;;;14.20;76.40;;;;;;7397160;19;20021;-80
2022/11/04 03:13:35;;;;;;;21.45;2.60;;;14.20;76.30;;;;;;7376464;19;20025;-80
2022/11/04 03:16:12;;;;;;;9.65;1.80;;;14.30;76.30;;;;;;7377171;19;20299;-81
2022/11/04 03:18:51;;;;;;;17.30;2.00;;;14.30;76.20;;;;;;7376410;19;20011;-80
2022/11/04 03:21:22;;;;;;;14.60;2.00;;;14.30;75.80;;;;;;7375619;19;20018;-81
2022/11/04 03:23:51;;;;;;;13.02;1.75;;;14.30;75.80;;;;;;7375446;19;20111;-80
2022/11/04 03:26:27;;;;;;;9.70;1.90;;;14.30;75.80;;;;;;7376449;19;20090;-80
2022/11/04 03:29:08;;;;;;;14.75;2.10;;;14.10;76.00;;;;;;7396233;19;20385;-78
2022/11/04 03:31:45;;;;;;;10.68;1.77;;;14.10;76.10;;;;;;7375480;19;20039;-78
2022/11/04 03:34:14;;;;;;;7.93;1.65;;;14.10;76.30;;;;;;7376598;19;20015;-78
2022/11/04 03:36:43;;;;;;;8.30;1.63;;;14.10;76.00;;;;;;7375908;19;20369;-79
2022/11/04 03:39:12;;;;;;;8.20;1.58;;;14.20;76.10;;;;;;7374953;19;20014;-80
2022/11/04 03:41:45;;;;;;;14.95;1.52;;;14.20;75.90;;;;;;7376180;19;20039;-79
2022/11/04 03:44:14;;;;;;;12.90;2.08;;;14.20;75.90;;;;;;7376457;19;20027;-79
2022/11/04 03:46:45;;;;;;;8.57;1.83;;;14.30;75.90;;;;;;7395595;19;20035;-79
2022/11/04 03:49:15;;;;;;;;;;;14.30;75.90;;;;;;7376523;19;20015;-80
2022/11/04 03:51:43;;;;;;;16.55;1.98;;;14.20;75.80;;;;;;7373437;19;19990;-80
2022/11/04 03:54:12;;;;;;;9.40;1.63;;;14.30;75.80;;;;;;7374105;19;20031;-80
2022/11/04 03:57:07;;;;;;;10.63;1.75;;;14.10;76.00;;;;;;7375957;19;20731;-79
2022/11/04 03:59:53;;;;;;;14.57;1.83;;;14.20;76.10;;;;;;7376864;19;20018;-79
2022/11/04 04:02:29;;;;;;;9.18;1.52;;;14.30;76.10;;;;;;7377266;19;20067;-79
2022/11/04 04:05:01;;;;;;;9.13;1.58;;;14.30;75.70;;;;;;7396649;19;20074;-80
2022/11/04 04:07:34;;;;;;;8.80;1.27;;;14.30;75.20;;;;;;7376412;19;20086;-80
2022/11/04 04:10:37;;;;;;;11.07;1.58;;;14.30;75.40;;;;;;7379393;19;20423;-80
2022/11/04 04:13:02;;;;;;;9.93;1.60;;;14.30;75.40;;;;;;7379078;19;20485;-80
2022/11/04 04:15:37;;;;;;;8.18;1.75;;;14.30;75.30;;;;;;7378151;19;20110;-80
2022/11/04 04:18:14;;;;;;;11.55;1.48;;;14.40;75.50;;;;;;7380343;19;20077;-80
2022/11/04 04:20:46;;;;;;;12.45;1.67;;;14.40;75.50;;;;;;7381501;19;20047;-80
2022/11/04 04:28:47;;;;;;;11.52;1.70;;;14.40;75.20;;;;;;7383781;19;20019;-81
2022/11/04 04:31:48;;;;;;;10.70;1.40;;;14.40;75.30;;;;;;7387846;19;20046;-81
2022/11/04 04:34:10;;;;;;;8.93;1.70;;;14.40;75.00;;;;;;7385357;19;20015;-80
2022/11/04 04:36:45;;;;;;;13.02;1.55;;;14.40;74.70;;;;;;7385401;19;20011;-80
2022/11/04 04:47:22;;;;;;;15.35;1.83;;;14.20;75.60;;;;;;7405296;19;19915;-79
2022/11/04 04:49:56;;;;;;;14.00;1.88;;;14.10;75.20;;;;;;7407302;19;20006;-80
2022/11/04 04:52:28;;;;;;;4.65;0.98;;;14.10;75.20;;;;;;7374375;19;20036;-80
2022/11/04 04:54:57;;;;;;;12.02;1.40;;;13.90;75.80;;;;;;7374677;19;20011;-80
2022/11/04 04:57:26;;;;;;;13.98;2.00;;;14.00;76.10;;;;;;7375623;19;20010;-80
2022/11/04 04:59:54;;;;;;;13.52;1.58;;;14.00;75.90;;;;;;7375110;19;20022;-80
2022/11/04 05:02:23;;;;;;;11.20;1.55;;;14.00;75.70;;;;;;7377060;19;20026;-79
2022/11/04 05:04:55;;;;;;;9.65;1.42;;;13.90;75.70;;;;;;7397099;19;20028;-81
2022/11/04 05:07:24;;;;;;;7.35;1.45;;;14.00;75.80;;;;;;7373284;19;20014;-81
2022/11/04 05:09:52;;;;;;;8.20;1.30;;;14.10;75.80;;;;;;7372980;19;20469;-80
2022/11/04 05:12:21;;;;;;;8.93;1.52;;;14.10;75.50;;;;;;7374240;19;20027;-80
2022/11/04 05:14:50;;;;;;;13.52;1.90;;;14.10;75.50;;;;;;7372156;19;20086;-80
2022/11/04 05:17:19;;;;;;;19.95;2.78;;;14.10;75.50;;;;;;7374484;19;20086;-79
2022/11/04 05:19:48;;;;;;;12.77;1.48;;;14.10;75.50;;;;;;7395835;19;20010;-80
2022/11/04 05:22:19;;;;;;;5.95;1.42;;;14.20;75.40;;;;;;7373335;19;20409;-80
2022/11/04 05:24:48;;;;;;;10.18;1.60;;;14.20;76.00;;;;;;7376033;19;20074;-80
2022/11/04 05:27:16;;;;;;;10.23;1.70;;;14.20;75.30;;;;;;7374183;19;20090;-80
2022/11/04 05:29:45;;;;;;;8.77;1.70;;;14.20;75.00;;;;;;7375885;19;20022;-79
2022/11/04 05:32:14;;;;;;;7.75;1.50;;;14.20;75.00;;;;;;7372989;19;20126;-80
2022/11/04 05:34:42;;;;;;;8.68;1.42;;;14.10;75.00;;;;;;7393066;19;20118;-80
2022/11/04 05:37:11;;;;;;;13.60;2.03;;;14.20;75.20;;;;;;7371632;19;20106;-80
2022/11/04 05:39:42;;;;;;;10.23;1.55;;;14.10;75.20;;;;;;7371444;19;20516;-80
2022/11/04 05:42:11;;;;;;;12.38;1.38;;;14.10;75.30;;;;;;7372664;19;20401;-80
2022/11/04 05:44:40;;;;;;;10.05;1.17;;;14.10;75.40;;;;;;7374519;19;20018;-80
2022/11/04 05:47:09;;;;;;;6.72;1.42;;;14.10;75.40;;;;;;7373519;19;20571;-80
2022/11/04 05:49:37;;;;;;;15.95;1.85;;;14.10;75.40;;;;;;7394764;19;20031;-80
2022/11/04 05:52:07;;;;;;;7.80;1.20;;;14.10;75.50;;;;;;7372867;19;20086;-81
2022/11/04 05:54:36;;;;;;;8.85;1.63;;;14.00;75.40;;;;;;7374108;19;20010;-81
2022/11/04 05:57:07;;;;;;;13.88;1.95;;;14.10;75.50;;;;;;7375746;19;20010;-81
2022/11/04 05:59:36;;;;;;;12.05;1.60;;;14.10;75.50;;;;;;7373394;19;20014;-80
2022/11/04 06:02:05;;;;;;;9.85;1.50;;;14.10;75.40;;;;;;7374223;19;20025;-80
2022/11/04 06:04:33;;;;;;;14.80;2.30;;;14.10;75.20;;;;;;7392361;19;20018;-81
2022/11/04 06:07:02;;;;;;;9.15;1.40;;;14.10;75.10;;;;;;7374975;19;20141;-80
2022/11/04 06:09:40;;;;;;;14.35;1.60;;;14.10;75.10;;;;;;7370538;19;20124;-80
2022/11/04 06:12:14;;;;;;;13.23;2.45;;;14.10;75.20;;;;;;7370069;19;20084;-80
2022/11/04 06:14:43;;;;;;;15.15;1.90;;;14.00;75.40;;;;;;7372976;19;20059;-80
2022/11/04 06:17:19;;;;;;;8.95;1.30;;;14.10;75.50;;;;;;7370976;19;20014;-79
2022/11/04 06:19:49;;;;;;;10.90;1.60;;;14.00;75.60;;;;;;7392911;19;20128;-80
2022/11/04 06:22:20;;;;;;;16.85;2.10;;;14.10;75.70;;;;;;7371521;19;20023;-80
2022/11/04 06:24:49;;;;;;;;;;;14.10;75.40;;;;;;7369561;19;20018;-80
2022/11/04 06:27:20;;;;;;;13.30;1.85;;;14.20;75.70;;;;;;7372453;19;19910;-80
2022/11/04 06:29:49;;;;;;;10.98;1.60;;;14.10;75.20;;;;;;7371444;19;20497;-80
2022/11/04 06:32:20;;;;;;;12.02;1.75;;;14.10;75.20;;;;;;7372014;19;20324;-80
2022/11/04 06:34:48;;;;;;;10.07;1.50;;;14.00;75.40;;;;;;7394151;19;20022;-80
2022/11/04 06:37:17;;;;;;;22.80;2.63;;;14.10;75.50;;;;;;7373365;19;20092;-80
2022/11/04 06:39:46;;;;;;;12.35;2.15;;;14.10;75.50;;;;;;7373002;19;20032;-81
2022/11/04 06:42:15;;;;;;;14.75;1.75;;;14.10;75.50;;;;;;7372968;19;20031;-80
2022/11/04 06:44:46;;;;;;;7.35;1.52;;;14.20;75.50;;;;;;7379620;19;20060;-80
2022/11/04 06:47:15;;;;;;;10.63;1.65;;;14.10;75.20;;;;;;7382108;19;20014;-80
2022/11/04 06:49:44;;;;;;;15.15;1.42;;;14.20;75.50;;;;;;7409858;19;20078;-80
2022/11/04 06:52:12;;;;;;;16.45;2.30;;;14.20;75.20;;;;;;7389142;19;20027;-80
2022/11/04 06:54:41;;;;;;;14.20;1.88;;;14.10;75.90;;;;;;7387817;19;20018;-80
2022/11/04 06:57:12;;;;;;;13.27;1.73;;;14.20;75.20;;;;;;7388856;19;20559;-81
2022/11/04 06:59:41;;;;;;;10.13;1.77;;;14.10;75.10;;;;;;7396416;19;20014;-80
2022/11/04 07:02:14;;;;;;;14.00;1.75;;;14.00;75.10;;;;;;7401761;19;20032;-79
2022/11/04 07:04:43;;;;;;;9.27;2.33;;;14.00;75.20;;;;;;7409935;19;20025;-80
2022/11/04 07:07:11;;;;;;;13.73;1.83;;;14.00;75.40;;;;;;7383142;19;20007;-79
2022/11/04 07:09:40;;;;;;;10.30;1.35;;;14.00;75.40;;;;;;7377767;19;20026;-79
2022/11/04 07:12:09;;;;;;;9.88;1.95;;;14.00;75.00;;;;;;7378774;19;20011;-75
2022/11/04 07:14:38;;;;;;;11.48;2.17;;;14.00;75.10;;;;;;7369637;19;20007;-75
2022/11/04 07:17:07;;;;;;;16.48;1.98;;;14.10;75.20;;;;;;7373647;19;20023;-75
2022/11/04 07:19:40;;;;;;;15.23;1.77;;;14.10;75.00;;;;;;7394685;19;20015;-76
2022/11/04 07:22:09;;;;;;;12.43;1.85;;;14.10;75.00;;;;;;7374113;19;20019;-75
2022/11/04 07:24:37;;;;;;;10.30;1.65;;;14.20;74.80;;;;;;7371930;19;20015;-76
2022/11/04 07:27:06;;;;;;;8.23;1.50;;;14.20;74.70;;;;;;7374458;19;20675;-75
2022/11/04 07:29:36;;;;;;;9.57;1.73;;;14.20;74.90;;;;;;7371156;19;20097;-76
2022/11/04 07:32:06;;;;;;;14.63;2.03;;;14.30;74.90;;;;;;7367741;19;20446;-76
2022/11/04 07:34:35;;;;;;;12.82;1.73;;;14.30;74.90;;;;;;7390226;19;20043;-79
2022/11/04 07:37:07;;;;;;;16.15;1.65;;;14.40;75.00;;;;;;7361077;19;20050;-81
2022/11/04 07:39:36;;;;;;;7.70;1.70;;;14.40;74.60;;;;;;7372615;19;20014;-79
2022/11/04 07:42:06;;;;;;;8.95;1.80;;;14.50;74.30;;;;;;7375001;19;20014;-78
2022/11/04 07:44:37;;;;;;;15.05;1.63;;;14.40;74.10;;;;;;7374987;19;20035;-81
2022/11/04 07:47:06;;;;;;;11.27;2.00;;;14.50;74.30;;;;;;7401671;19;20027;-81
2022/11/04 07:49:35;;;;;;;11.68;1.98;;;14.60;74.00;;;;;;7374470;19;20032;-80
2022/11/04 07:52:07;;;;;;;11.38;1.65;;;14.50;73.70;;;;;;7373705;19;20034;-79
2022/11/04 07:54:57;;;;;;;8.85;1.17;;;14.50;73.70;;;;;;7372617;19;20011;-79
2022/11/04 07:57:28;;;;;;;12.43;1.88;;;14.40;73.30;;;;;;7373257;19;20089;-79
2022/11/04 07:59:59;;;;;;;14.02;1.83;;;14.50;73.70;;;;;;7373593;19;20373;-79
2022/11/04 08:02:28;;;;;;;;;;;14.30;73.70;;;;;;7372567;19;20039;-78
2022/11/04 08:05:00;;;;;;;9.82;1.42;;;14.40;74.10;;;;;;7392074;19;20008;-77
2022/11/04 08:07:32;;;;;;;10.98;1.52;;;14.40;74.10;;;;;;7370382;19;20021;-78
2022/11/04 08:10:01;;;;;;;17.52;1.98;;;14.40;73.90;;;;;;7371757;19;20025;-79
2022/11/04 08:12:31;;;;;;;7.90;1.38;;;14.50;74.00;;;;;;7372487;19;20018;-78
2022/11/04 08:15:02;;;;;;;9.88;1.55;;;14.40;73.40;;;;;;7373614;19;20082;-79
2022/11/04 08:17:30;;;;;;;8.95;1.75;;;14.50;73.80;;;;;;7373357;19;20023;-77
2022/11/04 08:19:59;;;;;;;14.70;1.65;;;14.60;73.40;;;;;;7392923;19;20448;-77
2022/11/04 08:22:27;;;;;;;8.35;1.40;;;14.50;73.10;;;;;;7371921;19;20025;-79
2022/11/04 08:24:59;;;;;;;7.85;1.38;;;14.40;73.80;;;;;;7374123;19;20094;-78
2022/11/04 08:27:27;;;;;;;;;;;14.30;73.90;;;;;;7374920;19;20482;-79
2022/11/04 08:29:56;;;;;;;6.45;1.63;;;14.50;74.30;;;;;;7375606;19;20222;-78
2022/11/04 08:32:25;;;;;;;11.70;1.83;;;14.20;74.00;;;;;;7369406;19;20026;-78
2022/11/04 08:34:54;;;;;;;10.52;2.15;;;14.30;74.30;;;;;;7393855;19;20010;-78
2022/11/04 08:37:22;;;;;;;14.63;1.90;;;14.40;74.30;;;;;;7370844;19;20391;-79
2022/11/04 08:39:51;;;;;;;10.20;1.75;;;14.50;74.10;;;;;;7374507;19;20018;-80
2022/11/04 08:42:22;;;;;;;8.90;1.25;;;14.50;73.60;;;;;;7372632;19;20015;-79
2022/11/04 08:44:53;;;;;;;10.35;1.80;;;14.30;73.60;;;;;;7370463;19;20086;-79
2022/11/04 08:47:22;;;;;;;11.35;1.48;;;14.30;73.90;;;;;;7370635;19;20456;-79
2022/11/04 08:49:50;;;;;;;6.60;1.23;;;14.20;74.20;;;;;;7392398;19;20023;-79
2022/11/04 08:52:19;;;;;;;7.70;1.27;;;14.30;74.30;;;;;;7372155;19;20469;-79
2022/11/04 08:54:48;;;;;;;11.25;1.60;;;14.30;74.10;;;;;;7372046;19;20011;-80
2022/11/04 08:57:16;;;;;;;9.57;1.30;;;14.40;74.10;;;;;;7371700;19;20015;-80
2022/11/04 08:59:48;;;;;;;8.57;1.23;;;14.40;74.10;;;;;;7371355;19;20829;-79
2022/11/04 09:02:17;;;;;;;4.70;1.10;;;14.30;74.10;;;;;;7371560;19;20019;-78
2022/11/04 09:04:46;;;;;;;11.48;1.90;;;14.30;75.20;;;;;;7394030;19;20030;-80
2022/11/04 09:07:14;;;;;;;5.43;1.08;;;14.40;75.20;;;;;;7371675;19;20093;-82
2022/11/04 09:09:43;;;;;;;9.43;1.17;;;14.40;74.60;;;;;;7371244;19;20018;-79
2022/11/04 09:12:15;;;;;;;7.20;1.30;;;14.00;75.00;;;;;;7372220;19;20025;-79
2022/11/04 09:14:44;;;;;;;5.55;1.00;;;14.10;75.10;;;;;;7370091;19;20015;-78
2022/11/04 09:17:15;;;;;;;3.10;0.82;;;14.00;75.10;;;;;;7390232;19;20014;-79
2022/11/04 09:19:43;;;;;;;6.97;1.15;;;14.10;75.10;;;;;;7371135;19;20106;-77
2022/11/04 09:22:12;;;;;;;7.25;1.35;;;13.80;75.50;;;;;;7369418;19;20115;-78
2022/11/04 09:24:41;;;;;;;6.63;1.30;;;14.00;76.00;;;;;;7370100;19;20122;-79
2022/11/04 09:27:09;;;;;;;12.45;1.35;;;13.90;75.80;;;;;;7370262;19;20093;-79
2022/11/04 09:29:39;;;;;;;7.85;1.63;;;14.00;75.90;;;;;;7371220;19;20377;-78
2022/11/04 09:32:09;;;;;;;11.45;1.33;;;14.00;75.80;;;;;;7392389;19;20026;-78
2022/11/04 09:34:40;;;;;;;4.03;1.15;;;14.10;75.70;;;;;;7372531;19;20114;-79
2022/11/04 09:37:09;;;;;;;4.35;1.05;;;14.10;75.10;;;;;;7370891;19;20149;-78
2022/11/04 09:39:38;;;;;;;6.00;1.55;;;14.10;75.20;;;;;;7371267;19;20007;-78
2022/11/04 09:42:26;;;;;;;6.47;1.55;;;14.20;75.40;;;;;;7369825;19;20022;-78
2022/11/04 09:45:03;;;;;;;12.32;2.10;;;14.30;75.20;;;;;;7367785;19;20015;-78
2022/11/04 09:47:33;;;;;;;8.10;1.70;;;14.30;74.70;;;;;;7369172;19;20488;-77
2022/11/04 09:50:10;;;;;;;16.90;2.43;;;14.30;74.50;;;;;;7391858;19;20018;-77
2022/11/04 09:52:40;;;;;;;6.18;1.30;;;14.30;74.50;;;;;;7366724;19;20023;-77
2022/11/04 09:55:15;;;;;;;12.93;1.95;;;14.20;74.60;;;;;;7369428;19;20032;-78
2022/11/04 09:57:44;;;;;;;6.55;1.45;;;14.10;74.90;;;;;;7369470;19;20019;-78
2022/11/04 10:00:19;;;;;;;11.82;2.00;;;14.20;74.90;;;;;;7370485;19;20014;-79
2022/11/04 10:03:01;;;;;;;10.63;2.08;;;14.30;74.70;;;;;;7368637;19;20038;-79
2022/11/04 10:05:54;;;;;;;4.15;1.13;;;14.30;74.60;;;;;;7371205;19;20026;-77
2022/11/04 10:08:48;;;;;;;8.75;2.40;;;14.10;73.70;;;;;;7366470;19;20086;-77
2022/11/04 10:11:26;;;;;;;12.13;3.25;;;14.40;73.90;;;;;;7367634;19;20023;-77
2022/11/04 10:14:22;;;;;;;18.02;1.77;;;14.40;73.60;;;;;;7388710;19;20082;-77
2022/11/04 10:17:05;;;;;;;7.15;1.75;;;14.50;73.30;;;;;;7368085;19;20014;-77
2022/11/04 10:19:44;;;;;;;6.13;1.88;;;14.50;72.70;;;;;;7375296;19;20078;-78
2022/11/04 10:22:27;;;;;;;7.95;1.73;;;14.50;72.10;;;;;;7374630;19;20074;-79
2022/11/04 10:25:11;;;;;;;5.93;1.42;;;14.60;71.80;;;;;;7380012;19;20066;-78
2022/11/04 10:27:43;;;;;;;9.75;1.98;;;14.70;71.50;;;;;;7376407;19;20097;-78
2022/11/04 10:30:18;;;;;;;7.05;1.50;;;14.70;71.20;;;;;;7373854;19;20082;-78
2022/11/04 10:32:58;;;;;;;6.40;1.50;;;14.60;70.90;;;;;;7376162;19;20022;-77
2022/11/04 10:35:34;;;;;;;5.80;1.40;;;14.70;71.10;;;;;;7376289;19;20021;-78
2022/11/04 10:38:17;;;;;;;14.32;1.50;;;14.70;71.00;;;;;;7393392;19;20021;-78
2022/11/04 10:40:50;;;;;;;6.70;1.30;;;14.80;70.80;;;;;;7375370;19;20102;-78
2022/11/04 10:43:26;;;;;;;9.38;1.50;;;14.80;71.10;;;;;;7375275;19;20019;-78
2022/11/04 10:46:12;;;;;;;8.63;2.15;;;14.70;70.30;;;;;;7374665;19;20101;-78
2022/11/04 10:48:50;;;;;;;11.82;1.80;;;14.60;71.80;;;;;;7375453;19;20018;-78
2022/11/04 10:51:21;;;;;;;6.60;1.17;;;14.50;71.60;;;;;;7375144;19;20026;-79
2022/11/04 10:53:57;;;;;;;8.15;1.67;;;14.50;71.60;;;;;;7378121;19;21149;-79
2022/11/04 10:56:34;;;;;;;12.18;1.60;;;14.50;71.70;;;;;;7372748;19;20027;-79
2022/11/04 10:59:17;;;;;;;7.95;1.85;;;14.80;71.20;;;;;;7397229;19;20046;-80
2022/11/04 11:01:52;;;;;;;8.68;1.80;;;15.00;71.30;;;;;;7375746;19;20086;-79
2022/11/04 11:04:30;;;;;;;9.38;2.00;;;15.10;70.60;;;;;;7376509;19;20018;-79
2022/11/04 11:07:00;;;;;;;14.23;2.03;;;15.20;71.30;;;;;;7373147;19;20576;-79
2022/11/04 11:09:34;;;;;;;15.73;2.38;;;15.30;73.50;;;;;;7373737;19;20019;-79
2022/11/04 11:12:06;;;;;;;7.55;1.85;;;15.00;73.10;;;;;;7374261;19;20026;-77
2022/11/04 11:14:38;;;;;;;8.85;1.85;;;15.00;73.90;;;;;;7375280;19;20155;-78
2022/11/04 11:17:22;;;;;;;12.32;2.75;;;14.90;74.20;;;;;;7396453;19;20022;-78
2022/11/04 11:19:56;;;;;;;8.13;2.53;;;14.70;74.60;;;;;;7376265;19;20010;-78
2022/11/04 11:22:42;;;;;;;8.20;2.53;;;14.80;75.40;;;;;;7373521;19;20347;-78
2022/11/04 11:25:43;;;;;;;14.55;3.85;;;14.80;75.80;;;;;;7373564;19;20110;-79
2022/11/04 11:28:14;;;;;;;20.63;5.28;;;14.90;76.20;;;;;;7373591;19;20011;-77
2022/11/04 11:30:58;;;;;;;8.85;2.65;;;14.80;75.40;;;;;;7371685;19;20487;-77
2022/11/04 11:33:30;;;;;;;8.02;2.25;;;14.90;76.20;;;;;;7373158;19;20010;-78
2022/11/04 11:36:01;;;;;;;9.93;2.05;;;15.10;76.10;;;;;;7373870;19;20022;-79
2022/11/04 11:38:30;;;;;;;;;;;15.10;74.40;;;;;;7374403;19;20026;-77
2022/11/04 11:41:10;;;;;;;8.27;2.30;;;15.20;74.50;;;;;;7394797;19;19926;-78
2022/11/04 11:43:42;;;;;;;4.32;1.70;;;15.20;74.20;;;;;;7373527;19;20067;-77
2022/11/04 11:46:12;;;;;;;11.25;1.73;;;15.10;72.90;;;;;;7373517;19;20101;-78
2022/11/04 11:48:43;;;;;;;4.38;1.00;;;14.80;71.60;;;;;;7376604;19;20019;-78
2022/11/04 11:51:14;;;;;;;;;;;14.70;72.30;;;;;;7373480;19;20163;-77
2022/11/04 11:53:59;;;;;;;7.93;1.42;;;14.70;71.10;;;;;;7373893;19;19977;-78
2022/11/04 11:56:37;;;;;;;6.18;1.25;;;14.70;72.40;;;;;;7375005;19;20021;-78
2022/11/04 11:59:14;;;;;;;4.00;2.00;;;14.90;72.20;;;;;;7393647;19;20026;-77
2022/11/04 12:01:49;;;;;;;6.32;1.25;;;15.00;72.10;;;;;;7373406;19;20490;-78
2022/11/04 12:04:19;;;;;;;6.15;1.23;;;14.90;71.20;;;;;;7372560;19;20034;-76
2022/11/04 12:06:56;;;;;;;4.07;1.50;;;14.90;70.90;;;;;;7371488;19;20026;-78
2022/11/04 12:09:34;;;;;;;1.90;1.02;;;14.90;70.80;;;;;;7372834;19;20022;-78
2022/11/04 12:12:15;;;;;;;4.30;1.23;;;14.80;69.10;;;;;;7370730;19;20438;-79
2022/11/04 12:15:07;;;;;;;3.80;1.30;;;14.80;69.50;;;;;;7370372;19;20501;-77
2022/11/04 12:17:50;;;;;;;7.63;1.60;;;14.70;69.80;;;;;;7374800;19;20021;-77
2022/11/04 12:20:27;;;;;;;2.45;1.20;;;14.80;69.90;;;;;;7370288;19;20091;-78
2022/11/04 12:23:03;;;;;;;7.88;1.83;;;14.80;70.00;;;;;;7394519;19;20018;-79
2022/11/04 12:25:39;;;;;;;5.03;1.40;;;14.70;71.30;;;;;;7372862;19;20025;-77
2022/11/04 12:28:24;;;;;;;7.63;1.77;;;14.70;72.00;;;;;;7370603;19;20442;-78
2022/11/04 12:31:02;;;;;;;8.07;2.05;;;14.80;72.10;;;;;;7370490;19;20029;-76
2022/11/04 12:33:38;;;;;;;5.35;1.80;;;14.60;72.80;;;;;;7370806;19;20014;-78
2022/11/04 12:36:27;;;;;;;7.32;2.38;;;14.50;72.20;;;;;;7373681;19;20069;-77
2022/11/04 12:39:09;;;;;;;11.43;2.58;;;14.50;72.60;;;;;;7371204;19;20074;-77
2022/11/04 12:41:46;;;;;;;16.50;3.15;;;14.30;72.10;;;;;;7370517;19;20040;-77
2022/11/04 12:44:27;;;;;;;6.72;2.20;;;14.60;72.80;;;;;;7392064;19;20039;-78
2022/11/04 12:47:03;;;;;;;4.18;1.50;;;14.80;71.90;;;;;;7371429;19;20020;-78
2022/11/04 12:50:02;;;;;;;12.68;1.90;;;15.10;71.20;;;;;;7369260;19;20014;-79
2022/11/04 12:52:49;;;;;;;7.30;1.60;;;15.30;70.60;;;;;;7369945;19;20018;-78
2022/11/04 12:55:33;;;;;;;6.05;1.95;;;15.10;70.40;;;;;;7370675;19;20014;-78
2022/11/04 12:58:16;;;;;;;5.80;1.95;;;15.10;70.10;;;;;;7369873;19;20018;-78
2022/11/04 13:00:53;;;;;;;6.57;2.58;;;15.10;69.20;;;;;;7371079;19;20014;-79
2022/11/04 13:03:29;;;;;;;10.50;2.22;;;14.90;69.40;;;;;;7370909;19;20026;-77
2022/11/04 13:06:03;;;;;;;9.95;1.73;;;15.00;70.20;;;;;;7372035;19;20042;-78
2022/11/04 13:08:39;;;;;;;7.93;1.40;;;15.10;70.40;;;;;;7373006;19;20018;-78
2022/11/04 13:11:21;;;;;;;5.70;1.63;;;15.20;70.50;;;;;;7394591;19;20030;-77
2022/11/04 13:13:56;;;;;;;5.40;1.42;;;14.80;70.50;;;;;;7372188;19;20340;-78
2022/11/04 13:16:29;;;;;;;3.60;1.55;;;14.60;72.10;;;;;;7366208;19;20085;-77
2022/11/04 13:18:59;;;;;;;5.00;1.02;;;14.70;72.20;;;;;;7372285;19;20025;-77
2022/11/04 13:21:32;;;;;;;2.70;1.10;;;14.50;71.60;;;;;;7370964;19;20090;-78
2022/11/04 13:24:05;;;;;;;5.72;1.50;;;14.40;72.00;;;;;;7369933;19;20019;-79
2022/11/04 13:26:35;;;;;;;4.90;1.27;;;14.50;72.40;;;;;;7369640;19;20022;-77
2022/11/04 13:29:12;;;;;;;2.72;1.10;;;14.70;72.10;;;;;;7392226;19;20023;-78
2022/11/04 13:31:53;;;;;;;3.15;0.90;;;14.60;72.10;;;;;;7369792;19;20031;-78
2022/11/04 13:34:32;;;;;;;4.18;1.27;;;14.60;72.30;;;;;;7370160;19;20023;-77
2022/11/04 13:37:12;;;;;;;3.08;1.30;;;14.50;73.50;;;;;;7373295;19;20059;-77
2022/11/04 13:39:46;;;;;;;2.40;1.27;;;14.70;74.10;;;;;;7370331;19;20089;-78
2022/11/04 13:42:47;;;;;;;3.88;1.30;;;14.70;74.30;;;;;;7371726;19;20020;-77
2022/11/04 13:45:19;;;;;;;3.35;1.48;;;14.90;73.80;;;;;;7366911;19;20307;-77
2022/11/04 13:47:52;;;;;;;;;;;14.50;73.70;;;;;;7369268;19;20070;-78